sensor_id;sensor_type;location;lat;lon;timestamp;P1;durP1;ratioP1;P2;durP2;ratioP2
47912;SDS011;33676;51.006;17.180;2023-02-13T00:01:53;25.90;;;16.60;;
47912;SDS011;33676;51.006;17.180;2023-02-13T00:04:22;31.90;;;16.90;;
47912;SDS011;33676;51.006;17.180;2023-02-13T00:06:50;27.40;;;18.40;;
47912;SDS011;33676;51.006;17.180;2023-02-13T00:09:18;26.90;;;17.70;;
47912;SDS011;33676;51.006;17.180;2023-02-13T00:11:47;32.10;;;18.70;;
47912;SDS011;33676;51.006;17.180;2023-02-13T00:14:15;29.10;;;18.50;;
47912;SDS011;33676;51.006;17.180;2023-02-13T00:16:44;29.40;;;17.10;;
47912;SDS011;33676;51.006;17.180;2023-02-13T00:19:12;27.00;;;17.70;;
47912;SDS011;33676;51.006;17.180;2023-02-13T00:21:40;29.70;;;18.50;;
47912;SDS011;33676;51.006;17.180;2023-02-13T00:24:09;22.20;;;15.30;;
47912;SDS011;33676;51.006;17.180;2023-02-13T00:26:38;22.90;;;17.20;;
47912;SDS011;33676;51.006;17.180;2023-02-13T00:29:07;24.20;;;15.80;;
47912;SDS011;33676;51.006;17.180;2023-02-13T00:31:35;23.20;;;15.10;;
47912;SDS011;33676;51.006;17.180;2023-02-13T00:34:04;21.90;;;15.30;;
47912;SDS011;33676;51.006;17.180;2023-02-13T00:36:32;21.90;;;15.10;;
47912;SDS011;33676;51.006;17.180;2023-02-13T00:39:01;23.10;;;15.10;;
47912;SDS011;33676;51.006;17.180;2023-02-13T00:41:29;23.80;;;16.50;;
47912;SDS011;33676;51.006;17.180;2023-02-13T00:43:57;22.50;;;16.40;;
47912;SDS011;33676;51.006;17.180;2023-02-13T00:46:26;18.80;;;15.20;;
47912;SDS011;33676;51.006;17.180;2023-02-13T00:48:54;18.90;;;14.40;;
47912;SDS011;33676;51.006;17.180;2023-02-13T00:51:23;20.30;;;15.40;;
47912;SDS011;33676;51.006;17.180;2023-02-13T00:53:51;20.20;;;15.90;;
47912;SDS011;33676;51.006;17.180;2023-02-13T00:56:19;27.90;;;16.10;;
47912;SDS011;33676;51.006;17.180;2023-02-13T00:58:48;29.30;;;17.30;;
47912;SDS011;33676;51.006;17.180;2023-02-13T01:01:16;19.90;;;15.80;;
47912;SDS011;33676;51.006;17.180;2023-02-13T01:03:45;23.80;;;14.80;;
47912;SDS011;33676;51.006;17.180;2023-02-13T01:06:13;24.00;;;15.80;;
47912;SDS011;33676;51.006;17.180;2023-02-13T01:08:42;18.10;;;13.10;;
47912;SDS011;33676;51.006;17.180;2023-02-13T01:11:10;24.90;;;15.90;;
47912;SDS011;33676;51.006;17.180;2023-02-13T01:13:39;24.30;;;15.10;;
47912;SDS011;33676;51.006;17.180;2023-02-13T01:16:07;21.90;;;14.20;;
47912;SDS011;33676;51.006;17.180;2023-02-13T01:18:36;25.70;;;14.30;;
47912;SDS011;33676;51.006;17.180;2023-02-13T01:21:06;20.60;;;13.80;;
47912;SDS011;33676;51.006;17.180;2023-02-13T01:23:36;22.90;;;15.30;;
47912;SDS011;33676;51.006;17.180;2023-02-13T01:26:07;21.40;;;13.20;;
47912;SDS011;33676;51.006;17.180;2023-02-13T01:28:37;20.40;;;13.10;;
47912;SDS011;33676;51.006;17.180;2023-02-13T01:31:06;20.80;;;14.20;;
47912;SDS011;33676;51.006;17.180;2023-02-13T01:33:35;20.10;;;12.90;;
47912;SDS011;33676;51.006;17.180;2023-02-13T01:36:08;19.20;;;13.00;;
47912;SDS011;33676;51.006;17.180;2023-02-13T01:38:37;14.00;;;11.90;;
47912;SDS011;33676;51.006;17.180;2023-02-13T01:41:07;21.10;;;14.50;;
47912;SDS011;33676;51.006;17.180;2023-02-13T01:43:54;20.10;;;13.90;;
47912;SDS011;33676;51.006;17.180;2023-02-13T01:46:36;17.70;;;13.00;;
47912;SDS011;33676;51.006;17.180;2023-02-13T01:49:17;16.10;;;12.70;;
47912;SDS011;33676;51.006;17.180;2023-02-13T01:51:48;17.00;;;12.90;;
47912;SDS011;33676;51.006;17.180;2023-02-13T01:54:25;16.30;;;13.50;;
47912;SDS011;33676;51.006;17.180;2023-02-13T01:57:01;19.00;;;12.40;;
47912;SDS011;33676;51.006;17.180;2023-02-13T01:59:36;15.30;;;11.60;;
47912;SDS011;33676;51.006;17.180;2023-02-13T02:02:12;18.10;;;12.30;;
47912;SDS011;33676;51.006;17.180;2023-02-13T02:04:41;20.10;;;13.30;;
47912;SDS011;33676;51.006;17.180;2023-02-13T02:07:20;19.50;;;14.10;;
47912;SDS011;33676;51.006;17.180;2023-02-13T02:09:58;13.80;;;10.80;;
47912;SDS011;33676;51.006;17.180;2023-02-13T02:12:59;15.80;;;10.60;;
47912;SDS011;33676;51.006;17.180;2023-02-13T02:15:33;13.30;;;10.40;;
47912;SDS011;33676;51.006;17.180;2023-02-13T02:18:02;14.90;;;11.00;;
47912;SDS011;33676;51.006;17.180;2023-02-13T02:32:36;13.10;;;9.20;;
47912;SDS011;33676;51.006;17.180;2023-02-13T02:41:21;14.40;;;10.20;;
47912;SDS011;33676;51.006;17.180;2023-02-13T02:44:42;14.70;;;10.70;;
47912;SDS011;33676;51.006;17.180;2023-02-13T02:47:32;13.90;;;9.40;;
47912;SDS011;33676;51.006;17.180;2023-02-13T02:50:56;13.90;;;9.80;;
47912;SDS011;33676;51.006;17.180;2023-02-13T02:54:02;14.90;;;10.40;;
47912;SDS011;33676;51.006;17.180;2023-02-13T02:57:02;15.40;;;8.60;;
47912;SDS011;33676;51.006;17.180;2023-02-13T02:59:37;14.40;;;9.60;;
47912;SDS011;33676;51.006;17.180;2023-02-13T03:02:28;12.00;;;8.80;;
47912;SDS011;33676;51.006;17.180;2023-02-13T03:05:29;14.30;;;10.60;;
47912;SDS011;33676;51.006;17.180;2023-02-13T03:08:18;11.60;;;8.70;;
47912;SDS011;33676;51.006;17.180;2023-02-13T03:11:07;9.50;;;7.80;;
47912;SDS011;33676;51.006;17.180;2023-02-13T03:13:55;15.10;;;9.90;;
47912;SDS011;33676;51.006;17.180;2023-02-13T03:16:27;12.80;;;10.70;;
47912;SDS011;33676;51.006;17.180;2023-02-13T03:19:36;12.90;;;8.20;;
47912;SDS011;33676;51.006;17.180;2023-02-13T03:22:33;11.50;;;7.70;;
47912;SDS011;33676;51.006;17.180;2023-02-13T03:25:27;12.20;;;7.60;;
47912;SDS011;33676;51.006;17.180;2023-02-13T03:28:16;11.40;;;7.30;;
47912;SDS011;33676;51.006;17.180;2023-02-13T03:31:26;11.70;;;7.70;;
47912;SDS011;33676;51.006;17.180;2023-02-13T03:34:18;11.50;;;8.50;;
47912;SDS011;33676;51.006;17.180;2023-02-13T03:36:58;8.20;;;6.70;;
47912;SDS011;33676;51.006;17.180;2023-02-13T03:40:00;10.60;;;8.00;;
47912;SDS011;33676;51.006;17.180;2023-02-13T03:42:36;15.90;;;7.70;;
47912;SDS011;33676;51.006;17.180;2023-02-13T03:45:15;9.90;;;8.10;;
47912;SDS011;33676;51.006;17.180;2023-02-13T03:48:09;8.30;;;6.60;;
47912;SDS011;33676;51.006;17.180;2023-02-13T03:50:58;11.70;;;7.70;;
47912;SDS011;33676;51.006;17.180;2023-02-13T03:53:28;9.80;;;8.80;;
47912;SDS011;33676;51.006;17.180;2023-02-13T03:56:01;9.40;;;7.90;;
47912;SDS011;33676;51.006;17.180;2023-02-13T03:58:51;15.60;;;9.70;;
47912;SDS011;33676;51.006;17.180;2023-02-13T04:01:40;10.30;;;7.60;;
47912;SDS011;33676;51.006;17.180;2023-02-13T04:04:57;10.20;;;7.50;;
47912;SDS011;33676;51.006;17.180;2023-02-13T04:07:36;13.30;;;9.00;;
47912;SDS011;33676;51.006;17.180;2023-02-13T04:10:06;9.00;;;8.10;;
47912;SDS011;33676;51.006;17.180;2023-02-13T04:18:27;11.80;;;8.40;;
47912;SDS011;33676;51.006;17.180;2023-02-13T04:21:05;9.40;;;7.20;;
47912;SDS011;33676;51.006;17.180;2023-02-13T04:23:35;8.40;;;7.60;;
47912;SDS011;33676;51.006;17.180;2023-02-13T04:26:11;12.60;;;10.10;;
47912;SDS011;33676;51.006;17.180;2023-02-13T04:28:44;13.20;;;9.30;;
47912;SDS011;33676;51.006;17.180;2023-02-13T04:31:12;14.50;;;10.70;;
47912;SDS011;33676;51.006;17.180;2023-02-13T04:33:41;12.00;;;9.10;;
47912;SDS011;33676;51.006;17.180;2023-02-13T04:36:09;14.30;;;9.60;;
47912;SDS011;33676;51.006;17.180;2023-02-13T04:38:37;11.40;;;8.50;;
47912;SDS011;33676;51.006;17.180;2023-02-13T04:41:06;10.10;;;9.00;;
47912;SDS011;33676;51.006;17.180;2023-02-13T04:43:34;10.10;;;8.10;;
47912;SDS011;33676;51.006;17.180;2023-02-13T04:46:03;8.00;;;7.40;;
47912;SDS011;33676;51.006;17.180;2023-02-13T04:48:31;9.90;;;7.70;;
47912;SDS011;33676;51.006;17.180;2023-02-13T04:51:00;12.10;;;8.20;;
47912;SDS011;33676;51.006;17.180;2023-02-13T04:53:28;7.30;;;6.60;;
47912;SDS011;33676;51.006;17.180;2023-02-13T04:55:57;8.20;;;7.30;;
47912;SDS011;33676;51.006;17.180;2023-02-13T04:58:25;11.50;;;7.60;;
47912;SDS011;33676;51.006;17.180;2023-02-13T05:00:54;12.30;;;9.80;;
47912;SDS011;33676;51.006;17.180;2023-02-13T05:03:22;8.90;;;6.90;;
47912;SDS011;33676;51.006;17.180;2023-02-13T05:05:51;11.30;;;8.00;;
47912;SDS011;33676;51.006;17.180;2023-02-13T05:08:19;9.70;;;8.40;;
47912;SDS011;33676;51.006;17.180;2023-02-13T05:10:47;18.70;;;12.40;;
47912;SDS011;33676;51.006;17.180;2023-02-13T05:13:16;11.90;;;9.10;;
47912;SDS011;33676;51.006;17.180;2023-02-13T05:15:44;16.90;;;12.30;;
47912;SDS011;33676;51.006;17.180;2023-02-13T05:18:15;10.70;;;8.00;;
47912;SDS011;33676;51.006;17.180;2023-02-13T05:20:43;13.40;;;8.30;;
47912;SDS011;33676;51.006;17.180;2023-02-13T05:23:33;10.80;;;8.00;;
47912;SDS011;33676;51.006;17.180;2023-02-13T05:26:01;13.90;;;9.30;;
47912;SDS011;33676;51.006;17.180;2023-02-13T05:28:30;12.10;;;10.20;;
47912;SDS011;33676;51.006;17.180;2023-02-13T05:31:16;17.90;;;12.80;;
47912;SDS011;33676;51.006;17.180;2023-02-13T05:33:45;22.60;;;14.60;;
47912;SDS011;33676;51.006;17.180;2023-02-13T05:36:13;17.80;;;13.10;;
47912;SDS011;33676;51.006;17.180;2023-02-13T05:38:42;18.60;;;14.70;;
47912;SDS011;33676;51.006;17.180;2023-02-13T05:41:10;17.50;;;12.60;;
47912;SDS011;33676;51.006;17.180;2023-02-13T05:43:40;15.20;;;12.80;;
47912;SDS011;33676;51.006;17.180;2023-02-13T05:46:09;15.00;;;10.80;;
47912;SDS011;33676;51.006;17.180;2023-02-13T05:48:37;13.00;;;10.10;;
47912;SDS011;33676;51.006;17.180;2023-02-13T05:51:06;11.30;;;10.10;;
47912;SDS011;33676;51.006;17.180;2023-02-13T05:53:34;12.90;;;10.20;;
47912;SDS011;33676;51.006;17.180;2023-02-13T05:56:05;13.90;;;9.20;;
47912;SDS011;33676;51.006;17.180;2023-02-13T05:58:34;16.40;;;8.90;;
47912;SDS011;33676;51.006;17.180;2023-02-13T06:01:04;11.20;;;8.10;;
47912;SDS011;33676;51.006;17.180;2023-02-13T06:03:32;8.70;;;7.00;;
47912;SDS011;33676;51.006;17.180;2023-02-13T06:06:01;9.50;;;7.70;;
47912;SDS011;33676;51.006;17.180;2023-02-13T06:08:30;10.00;;;7.90;;
47912;SDS011;33676;51.006;17.180;2023-02-13T06:10:58;8.50;;;7.50;;
47912;SDS011;33676;51.006;17.180;2023-02-13T06:13:27;11.50;;;9.00;;
47912;SDS011;33676;51.006;17.180;2023-02-13T06:15:56;14.40;;;9.60;;
47912;SDS011;33676;51.006;17.180;2023-02-13T06:18:24;8.00;;;7.10;;
47912;SDS011;33676;51.006;17.180;2023-02-13T06:20:53;10.20;;;7.80;;
47912;SDS011;33676;51.006;17.180;2023-02-13T06:23:21;9.00;;;6.60;;
47912;SDS011;33676;51.006;17.180;2023-02-13T06:25:50;12.60;;;8.00;;
47912;SDS011;33676;51.006;17.180;2023-02-13T06:28:18;10.90;;;7.80;;
47912;SDS011;33676;51.006;17.180;2023-02-13T06:30:47;8.40;;;6.60;;
47912;SDS011;33676;51.006;17.180;2023-02-13T06:33:16;10.10;;;8.20;;
47912;SDS011;33676;51.006;17.180;2023-02-13T06:35:44;7.20;;;6.40;;
47912;SDS011;33676;51.006;17.180;2023-02-13T06:38:12;10.10;;;7.80;;
47912;SDS011;33676;51.006;17.180;2023-02-13T06:40:41;7.00;;;6.30;;
47912;SDS011;33676;51.006;17.180;2023-02-13T06:43:10;10.30;;;8.00;;
47912;SDS011;33676;51.006;17.180;2023-02-13T06:45:39;7.20;;;6.10;;
47912;SDS011;33676;51.006;17.180;2023-02-13T06:48:08;8.00;;;5.50;;
47912;SDS011;33676;51.006;17.180;2023-02-13T06:50:36;9.40;;;6.70;;
47912;SDS011;33676;51.006;17.180;2023-02-13T06:53:05;10.30;;;7.40;;
47912;SDS011;33676;51.006;17.180;2023-02-13T06:55:34;11.40;;;8.10;;
47912;SDS011;33676;51.006;17.180;2023-02-13T06:58:03;14.80;;;8.60;;
47912;SDS011;33676;51.006;17.180;2023-02-13T07:00:32;14.00;;;9.20;;
47912;SDS011;33676;51.006;17.180;2023-02-13T07:03:02;13.80;;;9.00;;
47912;SDS011;33676;51.006;17.180;2023-02-13T07:05:33;10.80;;;7.60;;
47912;SDS011;33676;51.006;17.180;2023-02-13T07:08:01;11.40;;;8.20;;
47912;SDS011;33676;51.006;17.180;2023-02-13T07:10:30;13.50;;;8.80;;
47912;SDS011;33676;51.006;17.180;2023-02-13T07:12:58;12.20;;;10.60;;
47912;SDS011;33676;51.006;17.180;2023-02-13T07:15:33;14.30;;;10.60;;
47912;SDS011;33676;51.006;17.180;2023-02-13T07:18:04;10.10;;;8.70;;
47912;SDS011;33676;51.006;17.180;2023-02-13T07:20:34;13.10;;;10.00;;
47912;SDS011;33676;51.006;17.180;2023-02-13T07:23:04;13.70;;;9.90;;
47912;SDS011;33676;51.006;17.180;2023-02-13T07:25:33;13.20;;;10.70;;
47912;SDS011;33676;51.006;17.180;2023-02-13T07:28:03;13.60;;;8.70;;
47912;SDS011;33676;51.006;17.180;2023-02-13T07:30:33;12.40;;;9.50;;
47912;SDS011;33676;51.006;17.180;2023-02-13T07:33:03;12.00;;;9.40;;
47912;SDS011;33676;51.006;17.180;2023-02-13T07:35:32;11.30;;;9.70;;
47912;SDS011;33676;51.006;17.180;2023-02-13T07:38:00;11.70;;;10.20;;
47912;SDS011;33676;51.006;17.180;2023-02-13T07:40:29;14.80;;;9.80;;
47912;SDS011;33676;51.006;17.180;2023-02-13T07:42:59;14.00;;;10.20;;
47912;SDS011;33676;51.006;17.180;2023-02-13T07:45:28;12.60;;;9.70;;
47912;SDS011;33676;51.006;17.180;2023-02-13T07:47:57;10.70;;;8.40;;
47912;SDS011;33676;51.006;17.180;2023-02-13T07:50:27;13.90;;;9.70;;
47912;SDS011;33676;51.006;17.180;2023-02-13T07:52:58;12.20;;;9.30;;
47912;SDS011;33676;51.006;17.180;2023-02-13T07:55:28;14.20;;;8.80;;
47912;SDS011;33676;51.006;17.180;2023-02-13T07:57:59;10.40;;;8.00;;
47912;SDS011;33676;51.006;17.180;2023-02-13T08:00:27;9.40;;;7.70;;
47912;SDS011;33676;51.006;17.180;2023-02-13T08:02:59;12.80;;;9.90;;
47912;SDS011;33676;51.006;17.180;2023-02-13T08:05:30;15.30;;;11.10;;
47912;SDS011;33676;51.006;17.180;2023-02-13T08:07:59;11.50;;;10.30;;
47912;SDS011;33676;51.006;17.180;2023-02-13T08:10:28;11.60;;;9.20;;
47912;SDS011;33676;51.006;17.180;2023-02-13T08:13:15;10.40;;;9.10;;
47912;SDS011;33676;51.006;17.180;2023-02-13T08:15:44;11.00;;;9.20;;
47912;SDS011;33676;51.006;17.180;2023-02-13T08:18:13;12.00;;;10.50;;
47912;SDS011;33676;51.006;17.180;2023-02-13T08:20:41;10.40;;;9.30;;
47912;SDS011;33676;51.006;17.180;2023-02-13T08:23:10;12.40;;;11.00;;
47912;SDS011;33676;51.006;17.180;2023-02-13T08:25:39;11.10;;;9.90;;
47912;SDS011;33676;51.006;17.180;2023-02-13T08:28:08;13.30;;;10.30;;
47912;SDS011;33676;51.006;17.180;2023-02-13T08:30:37;12.80;;;10.30;;
47912;SDS011;33676;51.006;17.180;2023-02-13T08:33:06;12.80;;;10.60;;
47912;SDS011;33676;51.006;17.180;2023-02-13T08:35:34;14.10;;;10.50;;
47912;SDS011;33676;51.006;17.180;2023-02-13T08:38:03;14.70;;;12.00;;
47912;SDS011;33676;51.006;17.180;2023-02-13T08:40:32;17.30;;;10.90;;
47912;SDS011;33676;51.006;17.180;2023-02-13T08:43:02;14.70;;;11.00;;
47912;SDS011;33676;51.006;17.180;2023-02-13T08:45:32;14.70;;;11.40;;
47912;SDS011;33676;51.006;17.180;2023-02-13T08:48:01;13.70;;;10.00;;
47912;SDS011;33676;51.006;17.180;2023-02-13T08:50:31;15.70;;;10.10;;
47912;SDS011;33676;51.006;17.180;2023-02-13T08:52:59;14.50;;;11.20;;
47912;SDS011;33676;51.006;17.180;2023-02-13T08:55:28;11.70;;;9.00;;
47912;SDS011;33676;51.006;17.180;2023-02-13T08:58:03;17.00;;;11.70;;
47912;SDS011;33676;51.006;17.180;2023-02-13T09:00:32;14.60;;;11.00;;
47912;SDS011;33676;51.006;17.180;2023-02-13T09:03:01;16.40;;;12.50;;
47912;SDS011;33676;51.006;17.180;2023-02-13T09:05:31;18.40;;;12.80;;
47912;SDS011;33676;51.006;17.180;2023-02-13T09:08:00;19.60;;;15.50;;
47912;SDS011;33676;51.006;17.180;2023-02-13T09:10:31;25.60;;;17.30;;
47912;SDS011;33676;51.006;17.180;2023-02-13T09:12:59;22.80;;;15.60;;
47912;SDS011;33676;51.006;17.180;2023-02-13T09:15:29;32.30;;;19.20;;
47912;SDS011;33676;51.006;17.180;2023-02-13T09:17:58;30.40;;;19.30;;
47912;SDS011;33676;51.006;17.180;2023-02-13T09:20:26;32.10;;;20.00;;
47912;SDS011;33676;51.006;17.180;2023-02-13T09:22:55;29.70;;;19.40;;
47912;SDS011;33676;51.006;17.180;2023-02-13T09:25:24;30.10;;;18.50;;
47912;SDS011;33676;51.006;17.180;2023-02-13T09:27:52;29.70;;;19.40;;
47912;SDS011;33676;51.006;17.180;2023-02-13T09:30:21;30.50;;;20.70;;
47912;SDS011;33676;51.006;17.180;2023-02-13T09:32:51;37.80;;;23.10;;
47912;SDS011;33676;51.006;17.180;2023-02-13T09:35:21;44.00;;;27.90;;
47912;SDS011;33676;51.006;17.180;2023-02-13T09:37:50;57.80;;;34.90;;
47912;SDS011;33676;51.006;17.180;2023-02-13T09:40:24;37.00;;;21.80;;
47912;SDS011;33676;51.006;17.180;2023-02-13T09:43:10;31.20;;;20.20;;
47912;SDS011;33676;51.006;17.180;2023-02-13T09:45:45;29.70;;;21.30;;
47912;SDS011;33676;51.006;17.180;2023-02-13T09:48:36;32.70;;;21.20;;
47912;SDS011;33676;51.006;17.180;2023-02-13T09:51:08;23.60;;;17.20;;
47912;SDS011;33676;51.006;17.180;2023-02-13T09:57:51;7.90;;;6.10;;
47912;SDS011;33676;51.006;17.180;2023-02-13T10:00:40;6.10;;;4.90;;
47912;SDS011;33676;51.006;17.180;2023-02-13T10:03:33;6.60;;;4.40;;
47912;SDS011;33676;51.006;17.180;2023-02-13T10:06:30;5.00;;;4.50;;
47912;SDS011;33676;51.006;17.180;2023-02-13T10:09:16;4.90;;;4.40;;
47912;SDS011;33676;51.006;17.180;2023-02-13T10:17:44;5.30;;;4.80;;
47912;SDS011;33676;51.006;17.180;2023-02-13T10:20:31;5.40;;;3.90;;
47912;SDS011;33676;51.006;17.180;2023-02-13T10:23:46;7.10;;;5.50;;
47912;SDS011;33676;51.006;17.180;2023-02-13T10:26:18;3.80;;;3.30;;
47912;SDS011;33676;51.006;17.180;2023-02-13T10:32:14;5.40;;;4.90;;
47912;SDS011;33676;51.006;17.180;2023-02-13T10:34:46;4.00;;;3.60;;
47912;SDS011;33676;51.006;17.180;2023-02-13T10:37:20;4.20;;;3.80;;
47912;SDS011;33676;51.006;17.180;2023-02-13T10:39:50;3.50;;;3.30;;
47912;SDS011;33676;51.006;17.180;2023-02-13T10:57:06;4.50;;;4.10;;
47912;SDS011;33676;51.006;17.180;2023-02-13T11:02:36;7.00;;;5.50;;
47912;SDS011;33676;51.006;17.180;2023-02-13T11:07:46;5.00;;;4.30;;
47912;SDS011;33676;51.006;17.180;2023-02-13T11:10:20;6.30;;;5.10;;
47912;SDS011;33676;51.006;17.180;2023-02-13T11:12:51;6.10;;;4.40;;
47912;SDS011;33676;51.006;17.180;2023-02-13T11:15:27;5.50;;;4.40;;
47912;SDS011;33676;51.006;17.180;2023-02-13T11:25:29;2.90;;;2.70;;
47912;SDS011;33676;51.006;17.180;2023-02-13T11:28:09;5.80;;;4.20;;
47912;SDS011;33676;51.006;17.180;2023-02-13T11:30:44;4.60;;;3.40;;
47912;SDS011;33676;51.006;17.180;2023-02-13T11:35:45;2.90;;;2.70;;
47912;SDS011;33676;51.006;17.180;2023-02-13T11:40:49;4.40;;;3.90;;
47912;SDS011;33676;51.006;17.180;2023-02-13T11:43:34;4.50;;;4.10;;
47912;SDS011;33676;51.006;17.180;2023-02-13T11:46:21;5.30;;;3.70;;
47912;SDS011;33676;51.006;17.180;2023-02-13T11:49:02;6.20;;;3.20;;
47912;SDS011;33676;51.006;17.180;2023-02-13T11:51:46;3.90;;;3.60;;
47912;SDS011;33676;51.006;17.180;2023-02-13T11:54:22;3.80;;;3.30;;
47912;SDS011;33676;51.006;17.180;2023-02-13T11:57:00;4.60;;;3.80;;
47912;SDS011;33676;51.006;17.180;2023-02-13T11:59:51;4.50;;;3.90;;
47912;SDS011;33676;51.006;17.180;2023-02-13T12:02:22;5.10;;;3.50;;
47912;SDS011;33676;51.006;17.180;2023-02-13T12:07:50;4.10;;;3.70;;
47912;SDS011;33676;51.006;17.180;2023-02-13T12:10:24;5.10;;;3.70;;
47912;SDS011;33676;51.006;17.180;2023-02-13T12:13:05;7.10;;;6.10;;
47912;SDS011;33676;51.006;17.180;2023-02-13T12:15:41;6.10;;;4.80;;
47912;SDS011;33676;51.006;17.180;2023-02-13T12:18:26;3.70;;;3.40;;
47912;SDS011;33676;51.006;17.180;2023-02-13T12:21:27;6.60;;;5.40;;
47912;SDS011;33676;51.006;17.180;2023-02-13T12:26:45;6.80;;;4.90;;
47912;SDS011;33676;51.006;17.180;2023-02-13T12:29:51;5.70;;;4.70;;
47912;SDS011;33676;51.006;17.180;2023-02-13T12:41:21;5.00;;;3.70;;
47912;SDS011;33676;51.006;17.180;2023-02-13T12:44:20;4.30;;;3.60;;
47912;SDS011;33676;51.006;17.180;2023-02-13T12:47:13;4.40;;;3.90;;
47912;SDS011;33676;51.006;17.180;2023-02-13T12:50:05;6.20;;;5.00;;
47912;SDS011;33676;51.006;17.180;2023-02-13T12:53:16;4.20;;;3.80;;
47912;SDS011;33676;51.006;17.180;2023-02-13T12:56:33;5.10;;;4.10;;
47912;SDS011;33676;51.006;17.180;2023-02-13T13:15:11;6.80;;;5.20;;
47912;SDS011;33676;51.006;17.180;2023-02-13T13:18:15;6.40;;;5.00;;
47912;SDS011;33676;51.006;17.180;2023-02-13T13:23:50;8.60;;;4.90;;
47912;SDS011;33676;51.006;17.180;2023-02-13T13:26:40;5.20;;;4.40;;
47912;SDS011;33676;51.006;17.180;2023-02-13T13:29:22;4.60;;;4.10;;
47912;SDS011;33676;51.006;17.180;2023-02-13T13:32:18;5.50;;;5.00;;
47912;SDS011;33676;51.006;17.180;2023-02-13T13:34:48;3.40;;;2.90;;
47912;SDS011;33676;51.006;17.180;2023-02-13T13:37:34;5.20;;;3.70;;
47912;SDS011;33676;51.006;17.180;2023-02-13T13:43:36;3.80;;;3.50;;
47912;SDS011;33676;51.006;17.180;2023-02-13T13:46:14;6.20;;;3.50;;
47912;SDS011;33676;51.006;17.180;2023-02-13T13:49:16;3.00;;;2.60;;
47912;SDS011;33676;51.006;17.180;2023-02-13T13:52:27;2.90;;;2.60;;
47912;SDS011;33676;51.006;17.180;2023-02-13T13:54:57;3.20;;;2.90;;
47912;SDS011;33676;51.006;17.180;2023-02-13T14:02:44;4.60;;;4.30;;
47912;SDS011;33676;51.006;17.180;2023-02-13T14:06:00;5.70;;;4.10;;
47912;SDS011;33676;51.006;17.180;2023-02-13T14:11:43;3.80;;;3.50;;
47912;SDS011;33676;51.006;17.180;2023-02-13T14:16:58;4.90;;;4.50;;
47912;SDS011;33676;51.006;17.180;2023-02-13T14:19:36;6.40;;;5.70;;
47912;SDS011;33676;51.006;17.180;2023-02-13T14:22:33;7.40;;;4.40;;
47912;SDS011;33676;51.006;17.180;2023-02-13T14:25:06;5.50;;;3.80;;
47912;SDS011;33676;51.006;17.180;2023-02-13T14:27:59;4.00;;;3.70;;
47912;SDS011;33676;51.006;17.180;2023-02-13T14:33:05;6.70;;;6.00;;
47912;SDS011;33676;51.006;17.180;2023-02-13T14:35:36;11.20;;;7.70;;
47912;SDS011;33676;51.006;17.180;2023-02-13T14:38:06;6.30;;;4.90;;
47912;SDS011;33676;51.006;17.180;2023-02-13T14:40:51;5.70;;;4.60;;
47912;SDS011;33676;51.006;17.180;2023-02-13T14:49:11;3.70;;;3.30;;
47912;SDS011;33676;51.006;17.180;2023-02-13T14:51:54;5.20;;;4.60;;
47912;SDS011;33676;51.006;17.180;2023-02-13T14:54:33;12.40;;;7.40;;
47912;SDS011;33676;51.006;17.180;2023-02-13T14:57:23;14.00;;;8.80;;
47912;SDS011;33676;51.006;17.180;2023-02-13T15:00:00;11.40;;;8.90;;
47912;SDS011;33676;51.006;17.180;2023-02-13T15:03:07;10.90;;;6.50;;
47912;SDS011;33676;51.006;17.180;2023-02-13T15:05:55;6.50;;;5.90;;
47912;SDS011;33676;51.006;17.180;2023-02-13T15:08:35;7.60;;;5.80;;
47912;SDS011;33676;51.006;17.180;2023-02-13T15:11:08;6.60;;;6.00;;
47912;SDS011;33676;51.006;17.180;2023-02-13T15:13:56;6.20;;;5.50;;
47912;SDS011;33676;51.006;17.180;2023-02-13T15:16:24;10.90;;;9.40;;
47912;SDS011;33676;51.006;17.180;2023-02-13T15:18:53;13.60;;;11.10;;
47912;SDS011;33676;51.006;17.180;2023-02-13T15:21:23;13.00;;;11.00;;
47912;SDS011;33676;51.006;17.180;2023-02-13T15:23:54;12.40;;;11.00;;
47912;SDS011;33676;51.006;17.180;2023-02-13T15:26:24;13.20;;;9.20;;
47912;SDS011;33676;51.006;17.180;2023-02-13T15:29:11;11.00;;;9.10;;
47912;SDS011;33676;51.006;17.180;2023-02-13T15:31:53;12.80;;;11.50;;
47912;SDS011;33676;51.006;17.180;2023-02-13T15:34:30;10.30;;;9.40;;
47912;SDS011;33676;51.006;17.180;2023-02-13T15:37:01;11.60;;;10.40;;
47912;SDS011;33676;51.006;17.180;2023-02-13T15:39:30;14.70;;;11.80;;
47912;SDS011;33676;51.006;17.180;2023-02-13T15:42:00;11.70;;;10.40;;
47912;SDS011;33676;51.006;17.180;2023-02-13T15:44:32;31.90;;;23.70;;
47912;SDS011;33676;51.006;17.180;2023-02-13T15:47:15;27.40;;;18.00;;
47912;SDS011;33676;51.006;17.180;2023-02-13T15:49:46;14.60;;;12.90;;
47912;SDS011;33676;51.006;17.180;2023-02-13T15:52:43;13.90;;;12.20;;
47912;SDS011;33676;51.006;17.180;2023-02-13T15:55:19;15.10;;;12.80;;
47912;SDS011;33676;51.006;17.180;2023-02-13T15:57:54;17.10;;;12.70;;
47912;SDS011;33676;51.006;17.180;2023-02-13T16:00:27;12.70;;;11.40;;
47912;SDS011;33676;51.006;17.180;2023-02-13T16:02:59;14.80;;;12.00;;
47912;SDS011;33676;51.006;17.180;2023-02-13T16:05:33;14.10;;;12.10;;
47912;SDS011;33676;51.006;17.180;2023-02-13T16:14:06;15.80;;;13.60;;
47912;SDS011;33676;51.006;17.180;2023-02-13T16:16:44;17.70;;;14.20;;
47912;SDS011;33676;51.006;17.180;2023-02-13T16:19:24;19.00;;;14.60;;
47912;SDS011;33676;51.006;17.180;2023-02-13T16:21:57;19.30;;;15.00;;
47912;SDS011;33676;51.006;17.180;2023-02-13T16:24:28;15.60;;;13.50;;
47912;SDS011;33676;51.006;17.180;2023-02-13T16:27:00;13.90;;;12.50;;
47912;SDS011;33676;51.006;17.180;2023-02-13T16:29:29;19.70;;;14.90;;
47912;SDS011;33676;51.006;17.180;2023-02-13T16:32:04;20.00;;;16.40;;
47912;SDS011;33676;51.006;17.180;2023-02-13T16:34:40;16.40;;;14.20;;
47912;SDS011;33676;51.006;17.180;2023-02-13T16:37:29;18.60;;;15.50;;
47912;SDS011;33676;51.006;17.180;2023-02-13T16:40:40;17.00;;;14.00;;
47912;SDS011;33676;51.006;17.180;2023-02-13T16:43:31;20.90;;;16.50;;
47912;SDS011;33676;51.006;17.180;2023-02-13T16:46:25;20.40;;;14.10;;
47912;SDS011;33676;51.006;17.180;2023-02-13T16:51:51;16.60;;;14.70;;
47912;SDS011;33676;51.006;17.180;2023-02-13T16:59:47;49.90;;;33.40;;
47912;SDS011;33676;51.006;17.180;2023-02-13T17:17:32;31.70;;;24.30;;
47912;SDS011;33676;51.006;17.180;2023-02-13T17:20:00;38.70;;;25.50;;
47912;SDS011;33676;51.006;17.180;2023-02-13T17:22:36;37.30;;;26.20;;
47912;SDS011;33676;51.006;17.180;2023-02-13T17:25:23;27.50;;;20.90;;
47912;SDS011;33676;51.006;17.180;2023-02-13T17:27:58;28.20;;;20.50;;
47912;SDS011;33676;51.006;17.180;2023-02-13T17:30:31;19.50;;;15.20;;
47912;SDS011;33676;51.006;17.180;2023-02-13T17:33:06;25.40;;;19.50;;
47912;SDS011;33676;51.006;17.180;2023-02-13T17:35:40;21.80;;;16.50;;
47912;SDS011;33676;51.006;17.180;2023-02-13T17:38:09;20.10;;;14.40;;
47912;SDS011;33676;51.006;17.180;2023-02-13T17:40:39;20.20;;;15.30;;
47912;SDS011;33676;51.006;17.180;2023-02-13T17:43:14;19.50;;;15.10;;
47912;SDS011;33676;51.006;17.180;2023-02-13T17:48:13;23.40;;;17.70;;